Time;durP1;ratioP1;P1;durP2;ratioP2;P2;SDS_P1;SDS_P2;PMS_P1;PMS_P2;Temp;Humidity;BMP_temperature;BMP_pressure;BME280_temperature;BME280_humidity;BME280_pressure;Samples;Min_cycle;Max_cycle;Signal;HPM_P1;HPM_P2
2021/04/17 00:02:24;;;;;;;;;;;;;;;;;;4916010;29;19926;-53
2021/04/17 00:04:49;;;;;;;;;;;;;;;;;;4915668;29;19922;-51
2021/04/17 00:07:14;;;;;;;;;;;;;;;;;;4914968;29;19918;-51
2021/04/17 00:09:40;;;;;;;;;;;;;;;;;;4915933;29;19918;-55
2021/04/17 00:12:05;;;;;;;;;;;;;;;;;;4916300;29;20362;-51
2021/04/17 00:14:30;;;;;;;;;;;;;;;;;;4929970;29;19910;-59
2021/04/17 00:16:55;;;;;;;;;;;;;;;;;;4938239;29;20394;-56
2021/04/17 00:19:21;;;;;;;;;;;;;;;;;;4937616;29;19911;-50
2021/04/17 00:21:46;;;;;;;;;;;;;;;;;;4935324;29;20271;-50
2021/04/17 00:24:11;;;;;;;;;;;;;;;;;;4936140;29;20001;-50
2021/04/17 00:26:36;;;;;;;;;;;;;;;;;;4936470;29;20154;-54
2021/04/17 00:29:02;;;;;;;;;;;;;;;;;;4936887;29;19931;-53
2021/04/17 00:31:27;;;;;;;;;;;;;;;;;;4936373;29;20276;-54
2021/04/17 00:33:52;;;;;;;;;;;;;;;;;;4936404;29;19918;-52
2021/04/17 00:36:17;;;;;;;;;;;;;;;;;;4936316;29;19919;-56
2021/04/17 00:38:42;;;;;;;;;;;;;;;;;;4934999;29;19917;-54
2021/04/17 00:41:08;;;;;;;;;;;;;;;;;;4936145;29;19940;-54
2021/04/17 00:43:33;;;;;;;;;;;;;;;;;;4935424;29;20021;-53
2021/04/17 00:45:58;;;;;;;;;;;;;;;;;;4935127;29;20438;-54
2021/04/17 00:48:23;;;;;;;;;;;;;;;;;;4936810;29;19914;-52
2021/04/17 00:50:49;;;;;;;;;;;;;;;;;;4919680;29;20451;-52
2021/04/17 00:53:14;;;;;;;;;;;;;;;;;;4937220;29;19911;-53
2021/04/17 00:55:39;;;;;;;;;;;;;;;;;;4935842;29;19934;-53
2021/04/17 00:58:05;;;;;;;;;;;;;;;;;;4937426;29;19969;-56
2021/04/17 01:00:32;;;;;;;;;;;;;;;;;;4937038;29;19918;-57
2021/04/17 01:02:57;;;;;;;;;;;;;;;;;;4936102;29;19929;-56
2021/04/17 01:05:22;;;;;;;;;;;;;;;;;;4920093;29;19907;-55
2021/04/17 01:07:48;;;;;;;;;;;;;;;;;;4937177;29;19910;-57
2021/04/17 01:10:13;;;;;;;;;;;;;;;;;;4919919;29;19922;-55
2021/04/17 01:12:39;;;;;;;;;;;;;;;;;;4937151;29;19911;-55
2021/04/17 01:15:05;;;;;;;;;;;;;;;;;;4937474;29;19910;-55
2021/04/17 01:17:30;;;;;;;;;;;;;;;;;;4937048;29;19911;-53
2021/04/17 01:19:55;;;;;;;;;;;;;;;;;;4922536;29;20367;-51
2021/04/17 01:22:20;;;;;;;;;;;;;;;;;;4916159;29;19919;-52
2021/04/17 01:24:46;;;;;;;;;;;;;;;;;;4918081;29;19958;-53
2021/04/17 01:27:11;;;;;;;;;;;;;;;;;;4924632;29;20375;-52
2021/04/17 01:29:36;;;;;;;;;;;;;;;;;;4936672;29;19953;-51
2021/04/17 01:32:02;;;;;;;;;;;;;;;;;;4936944;29;19975;-52
2021/04/17 01:34:27;;;;;;;;;;;;;;;;;;4936588;29;19937;-51
2021/04/17 01:36:52;;;;;;;;;;;;;;;;;;4936688;29;19954;-51
2021/04/17 01:39:17;;;;;;;;;;;;;;;;;;4935272;29;20301;-57
2021/04/17 01:41:43;;;;;;;;;;;;;;;;;;4936546;29;20371;-53
2021/04/17 01:44:08;;;;;;;;;;;;;;;;;;4924416;29;19911;-53
2021/04/17 01:46:33;;;;;;;;;;;;;;;;;;4917484;29;20005;-54
2021/04/17 01:48:58;;;;;;;;;;;;;;;;;;4917610;29;19911;-56
2021/04/17 01:51:24;;;;;;;;;;;;;;;;;;4916104;29;19911;-53
2021/04/17 01:53:49;;;;;;;;;;;;;;;;;;4917394;29;19934;-53
2021/04/17 01:56:14;;;;;;;;;;;;;;;;;;4916263;29;19911;-53
2021/04/17 01:58:39;;;;;;;;;;;;;;;;;;4915331;29;19942;-52
2021/04/17 02:01:04;;;;;;;;;;;;;;;;;;4917198;29;19973;-53
2021/04/17 02:03:30;;;;;;;;;;;;;;;;;;4915862;29;19919;-50
2021/04/17 02:05:55;;;;;;;;;;;;;;;;;;4917409;29;19954;-52
2021/04/17 02:08:20;;;;;;;;;;;;;;;;;;4916952;29;19910;-55
2021/04/17 02:10:45;;;;;;;;;;;;;;;;;;4915986;29;20386;-55
2021/04/17 02:13:11;;;;;;;;;;;;;;;;;;4917047;29;20344;-55
2021/04/17 02:15:36;;;;;;;;;;;;;;;;;;4915561;29;19911;-61
2021/04/17 02:18:01;;;;;;;;;;;;;;;;;;4917160;29;19911;-56
2021/04/17 02:20:27;;;;;;;;;;;;;;;;;;4916837;29;19911;-55
2021/04/17 02:22:52;;;;;;;;;;;;;;;;;;4917061;29;19919;-57
2021/04/17 02:25:17;;;;;;;;;;;;;;;;;;4916838;29;19915;-54
2021/04/17 02:27:42;;;;;;;;;;;;;;;;;;4916611;29;19994;-54
2021/04/17 02:30:07;;;;;;;;;;;;;;;;;;4917111;29;19915;-53
2021/04/17 02:32:33;;;;;;;;;;;;;;;;;;4916619;29;19915;-52
2021/04/17 02:34:58;;;;;;;;;;;;;;;;;;4916264;29;20387;-53
2021/04/17 02:37:23;;;;;;;;;;;;;;;;;;4916729;29;19914;-53
2021/04/17 02:39:48;;;;;;;;;;;;;;;;;;4915390;29;20312;-52
2021/04/17 02:42:13;;;;;;;;;;;;;;;;;;4916709;29;20394;-55
2021/04/17 02:44:39;;;;;;;;;;;;;;;;;;4916989;29;20371;-54
2021/04/17 02:47:04;;;;;;;;;;;;;;;;;;4916674;29;19934;-55
2021/04/17 02:49:29;;;;;;;;;;;;;;;;;;4931530;29;19997;-53
2021/04/17 02:51:54;;;;;;;;;;;;;;;;;;4930350;29;19910;-52
2021/04/17 02:54:20;;;;;;;;;;;;;;;;;;4915227;29;19918;-56
2021/04/17 02:56:45;;;;;;;;;;;;;;;;;;4916337;29;20427;-52
2021/04/17 02:59:10;;;;;;;;;;;;;;;;;;4923895;29;20284;-53
2021/04/17 03:01:35;;;;;;;;;;;;;;;;;;4934988;29;19919;-56
2021/04/17 03:04:01;;;;;;;;;;;;;;;;;;4934092;29;19910;-55
2021/04/17 03:06:26;;;;;;;;;;;;;;;;;;4935079;29;19911;-54
2021/04/17 03:08:51;;;;;;;;;;;;;;;;;;4935256;29;19910;-54
2021/04/17 03:11:16;;;;;;;;;;;;;;;;;;4917234;29;19961;-53
2021/04/17 03:13:42;;;;;;;;;;;;;;;;;;4916455;29;20381;-55
2021/04/17 03:16:07;;;;;;;;;;;;;;;;;;4916562;29;19915;-57
2021/04/17 03:18:32;;;;;;;;;;;;;;;;;;4914926;29;19915;-55
2021/04/17 03:20:57;;;;;;;;;;;;;;;;;;4915063;29;19970;-55
2021/04/17 03:23:23;;;;;;;;;;;;;;;;;;4916149;29;20367;-55
2021/04/17 03:25:48;;;;;;;;;;;;;;;;;;4914687;29;20423;-55
2021/04/17 03:28:13;;;;;;;;;;;;;;;;;;4916106;29;19918;-55
2021/04/17 03:30:38;;;;;;;;;;;;;;;;;;4914949;29;19911;-54
2021/04/17 03:33:03;;;;;;;;;;;;;;;;;;4916312;29;19918;-54
2021/04/17 03:35:30;;;;;;;;;;;;;;;;;;4916540;29;19911;-56
2021/04/17 03:37:55;;;;;;;;;;;;;;;;;;4916121;29;20308;-55
2021/04/17 03:40:20;;;;;;;;;;;;;;;;;;4899161;29;19971;-55
2021/04/17 03:42:46;;;;;;;;;;;;;;;;;;4898551;29;20268;-56
2021/04/17 03:45:11;;;;;;;;;;;;;;;;;;4915640;29;19915;-56
2021/04/17 03:47:36;;;;;;;;;;;;;;;;;;4935512;29;19910;-53
2021/04/17 03:50:01;;;;;;;;;;;;;;;;;;4938657;29;19915;-51
2021/04/17 03:52:26;;;;;;;;;;;;;;;;;;4938667;29;19977;-55
2021/04/17 03:54:52;;;;;;;;;;;;;;;;;;4938449;29;19911;-55
2021/04/17 03:57:17;;;;;;;;;;;;;;;;;;4938701;29;19915;-53
2021/04/17 03:59:45;;;;;;;;;;;;;;;;;;4938233;29;19911;-55
2021/04/17 04:02:10;;;;;;;;;;;;;;;;;;4938189;29;19937;-54
2021/04/17 04:04:35;;;;;;;;;;;;;;;;;;4938214;29;20295;-53
2021/04/17 04:07:00;;;;;;;;;;;;;;;;;;4938213;29;19910;-53
2021/04/17 04:09:26;;;;;;;;;;;;;;;;;;4938500;29;19961;-56
2021/04/17 04:11:51;;;;;;;;;;;;;;;;;;4938824;29;20018;-55
2021/04/17 04:14:16;;;;;;;;;;;;;;;;;;4938432;29;20232;-53
2021/04/17 04:16:41;;;;;;;;;;;;;;;;;;4939266;29;19929;-53
2021/04/17 04:19:07;;;;;;;;;;;;;;;;;;4938407;29;19919;-62
2021/04/17 04:21:32;;;;;;;;;;;;;;;;;;4939699;29;19910;-53
2021/04/17 04:23:57;;;;;;;;;;;;;;;;;;4939328;29;19914;-55
2021/04/17 04:26:22;;;;;;;;;;;;;;;;;;4938920;29;19965;-55
2021/04/17 04:28:47;;;;;;;;;;;;;;;;;;4938230;29;20049;-55
2021/04/17 04:31:13;;;;;;;;;;;;;;;;;;4938472;29;19906;-54
2021/04/17 04:33:38;;;;;;;;;;;;;;;;;;4937842;29;20049;-53
2021/04/17 04:36:03;;;;;;;;;;;;;;;;;;4938138;29;19911;-54
2021/04/17 04:38:28;;;;;;;;;;;;;;;;;;4936774;29;19910;-52
2021/04/17 04:40:53;;;;;;;;;;;;;;;;;;4937734;29;19917;-52
2021/04/17 04:43:19;;;;;;;;;;;;;;;;;;4937399;29;20013;-52
2021/04/17 04:45:44;;;;;;;;;;;;;;;;;;4936292;29;19907;-51
2021/04/17 04:48:09;;;;;;;;;;;;;;;;;;4937601;29;19911;-54
2021/04/17 04:50:34;;;;;;;;;;;;;;;;;;4937632;29;20354;-55
2021/04/17 04:53:00;;;;;;;;;;;;;;;;;;4937212;29;20026;-53
2021/04/17 04:55:25;;;;;;;;;;;;;;;;;;4937512;29;20352;-52
2021/04/17 04:57:50;;;;;;;;;;;;;;;;;;4936605;29;20331;-53
2021/04/17 05:00:15;;;;;;;;;;;;;;;;;;4937198;29;20355;-54
2021/04/17 05:02:41;;;;;;;;;;;;;;;;;;4936998;29;19997;-59
2021/04/17 05:05:06;;;;;;;;;;;;;;;;;;4937370;29;19930;-52
2021/04/17 05:07:31;;;;;;;;;;;;;;;;;;4937159;29;19958;-53
2021/04/17 05:09:56;;;;;;;;;;;;;;;;;;4936924;29;19910;-51
2021/04/17 05:12:22;;;;;;;;;;;;;;;;;;4937175;29;19911;-55
2021/04/17 05:14:47;;;;;;;;;;;;;;;;;;4937283;29;19949;-54
2021/04/17 05:17:12;;;;;;;;;;;;;;;;;;4935943;29;19911;-54
2021/04/17 05:19:39;;;;;;;;;;;;;;;;;;4935781;29;19920;-55
2021/04/17 05:22:05;;;;;;;;;;;;;;;;;;4935525;29;20271;-53
2021/04/17 05:24:30;;;;;;;;;;;;;;;;;;4935678;29;19911;-55
2021/04/17 05:26:55;;;;;;;;;;;;;;;;;;4935381;29;19918;-51
2021/04/17 05:29:20;;;;;;;;;;;;;;;;;;4936893;29;19910;-51
2021/04/17 05:31:46;;;;;;;;;;;;;;;;;;4935142;29;19910;-52
2021/04/17 05:34:11;;;;;;;;;;;;;;;;;;4936681;29;20052;-54
2021/04/17 05:36:36;;;;;;;;;;;;;;;;;;4935527;29;19998;-52
2021/04/17 05:39:01;;;;;;;;;;;;;;;;;;4933638;29;19907;-52
2021/04/17 05:41:27;;;;;;;;;;;;;;;;;;4933899;29;20349;-52
2021/04/17 05:43:52;;;;;;;;;;;;;;;;;;4934859;29;19962;-53
2021/04/17 05:46:17;;;;;;;;;;;;;;;;;;4935187;29;19922;-53
2021/04/17 05:48:43;;;;;;;;;;;;;;;;;;4933413;29;20422;-50
2021/04/17 05:51:08;;;;;;;;;;;;;;;;;;4934640;29;19965;-56
2021/04/17 05:53:33;;;;;;;;;;;;;;;;;;4935148;29;19911;-52
2021/04/17 05:55:59;;;;;;;;;;;;;;;;;;4934611;29;19922;-53
2021/04/17 05:58:24;;;;;;;;;;;;;;;;;;4933915;29;20336;-53
2021/04/17 06:00:49;;;;;;;;;;;;;;;;;;4934301;29;19918;-54
2021/04/17 06:03:14;;;;;;;;;;;;;;;;;;4933517;29;19978;-53
2021/04/17 06:05:40;;;;;;;;;;;;;;;;;;4934713;29;20276;-54
2021/04/17 06:08:06;;;;;;;;;;;;;;;;;;4935533;29;19911;-52
2021/04/17 06:10:31;;;;;;;;;;;;;;;;;;4935136;29;19918;-53
2021/04/17 06:12:56;;;;;;;;;;;;;;;;;;4934464;29;20370;-53
2021/04/17 06:15:22;;;;;;;;;;;;;;;;;;4936103;29;19921;-54
2021/04/17 06:17:47;;;;;;;;;;;;;;;;;;4935656;29;20387;-55
2021/04/17 06:20:12;;;;;;;;;;;;;;;;;;4935987;29;19971;-54
2021/04/17 06:22:37;;;;;;;;;;;;;;;;;;4934393;29;20355;-56
2021/04/17 06:25:03;;;;;;;;;;;;;;;;;;4935544;29;19993;-57
2021/04/17 06:27:28;;;;;;;;;;;;;;;;;;4935597;29;19975;-56
2021/04/17 06:29:53;;;;;;;;;;;;;;;;;;4935990;29;20003;-55
2021/04/17 06:32:18;;;;;;;;;;;;;;;;;;4935591;29;20480;-56
2021/04/17 06:34:44;;;;;;;;;;;;;;;;;;4935813;29;19906;-56
2021/04/17 06:37:09;;;;;;;;;;;;;;;;;;4935386;29;19911;-55
2021/04/17 06:39:34;;;;;;;;;;;;;;;;;;4935559;29;19938;-56
2021/04/17 06:42:01;;;;;;;;;;;;;;;;;;4918291;29;19961;-55
2021/04/17 06:44:27;;;;;;;;;;;;;;;;;;4935671;29;19914;-55
2021/04/17 06:46:52;;;;;;;;;;;;;;;;;;4935487;29;19910;-54
2021/04/17 06:49:17;;;;;;;;;;;;;;;;;;4918151;29;19930;-53
2021/04/17 06:51:42;;;;;;;;;;;;;;;;;;4935316;29;19914;-56
2021/04/17 06:54:07;;;;;;;;;;;;;;;;;;4933849;29;19923;-52
2021/04/17 06:56:33;;;;;;;;;;;;;;;;;;4934118;29;19994;-55
2021/04/17 06:58:58;;;;;;;;;;;;;;;;;;4933592;29;19969;-54
2021/04/17 07:01:23;;;;;;;;;;;;;;;;;;4935225;29;19968;-54
2021/04/17 07:03:49;;;;;;;;;;;;;;;;;;4933964;29;20343;-53
2021/04/17 07:06:14;;;;;;;;;;;;;;;;;;4935207;29;19915;-53
2021/04/17 07:08:39;;;;;;;;;;;;;;;;;;4934007;29;20339;-53
2021/04/17 07:11:04;;;;;;;;;;;;;;;;;;4934978;29;19911;-54
2021/04/17 07:13:30;;;;;;;;;;;;;;;;;;4935355;29;19954;-53
2021/04/17 07:15:55;;;;;;;;;;;;;;;;;;4933901;29;20252;-53
2021/04/17 07:18:20;;;;;;;;;;;;;;;;;;4935073;29;20005;-54
2021/04/17 07:20:45;;;;;;;;;;;;;;;;;;4936462;29;20371;-53
2021/04/17 07:23:10;;;;;;;;;;;;;;;;;;4937402;29;20223;-53
2021/04/17 07:25:36;;;;;;;;;;;;;;;;;;4937654;29;19914;-56
2021/04/17 07:28:01;;;;;;;;;;;;;;;;;;4937304;29;19925;-56
2021/04/17 07:30:26;;;;;;;;;;;;;;;;;;4939165;29;20009;-51
2021/04/17 07:32:51;;;;;;;;;;;;;;;;;;4938733;29;20009;-55
2021/04/17 07:35:17;;;;;;;;;;;;;;;;;;4937780;29;20327;-56
2021/04/17 07:37:42;;;;;;;;;;;;;;;;;;4938807;29;20255;-55
2021/04/17 07:40:07;;;;;;;;;;;;;;;;;;4937254;29;20410;-55
2021/04/17 07:42:32;;;;;;;;;;;;;;;;;;4921145;29;19927;-56
2021/04/17 07:44:57;;;;;;;;;;;;;;;;;;4936910;29;20252;-54
2021/04/17 07:47:23;;;;;;;;;;;;;;;;;;4938553;29;19966;-55
2021/04/17 07:49:48;;;;;;;;;;;;;;;;;;4938443;29;19990;-56
2021/04/17 07:52:15;;;;;;;;;;;;;;;;;;4938127;29;19911;-52
2021/04/17 07:54:40;;;;;;;;;;;;;;;;;;4938320;29;19921;-56
2021/04/17 07:57:05;;;;;;;;;;;;;;;;;;4936605;29;19910;-54
2021/04/17 07:59:30;;;;;;;;;;;;;;;;;;4938009;29;20418;-55
2021/04/17 08:01:56;;;;;;;;;;;;;;;;;;4937751;29;20387;-54
2021/04/17 08:04:21;;;;;;;;;;;;;;;;;;4936882;29;19914;-54
2021/04/17 08:06:46;;;;;;;;;;;;;;;;;;4936904;29;19922;-52
2021/04/17 08:09:11;;;;;;;;;;;;;;;;;;4937279;29;19920;-56
2021/04/17 08:11:36;;;;;;;;;;;;;;;;;;4920232;29;19930;-53
2021/04/17 08:14:02;;;;;;;;;;;;;;;;;;4935343;29;20264;-54
2021/04/17 08:16:27;;;;;;;;;;;;;;;;;;4935625;29;19922;-53
2021/04/17 08:18:52;;;;;;;;;;;;;;;;;;4935380;29;19917;-55
2021/04/17 08:21:17;;;;;;;;;;;;;;;;;;4936278;29;19914;-56
2021/04/17 08:23:43;;;;;;;;;;;;;;;;;;4935266;29;20299;-56
2021/04/17 08:26:08;;;;;;;;;;;;;;;;;;4937723;29;19915;-52
2021/04/17 08:28:33;;;;;;;;;;;;;;;;;;4937451;29;19911;-56
2021/04/17 08:30:58;;;;;;;;;;;;;;;;;;4937404;29;20327;-56
2021/04/17 08:33:24;;;;;;;;;;;;;;;;;;4935626;29;19958;-55
2021/04/17 08:35:50;;;;;;;;;;;;;;;;;;4936276;29;19997;-54
2021/04/17 08:38:15;;;;;;;;;;;;;;;;;;4937348;29;19958;-55
2021/04/17 08:40:40;;;;;;;;;;;;;;;;;;4937451;29;19911;-53
2021/04/17 08:43:05;;;;;;;;;;;;;;;;;;4937072;29;19914;-55
2021/04/17 08:45:31;;;;;;;;;;;;;;;;;;4937883;29;20375;-55
2021/04/17 08:47:56;;;;;;;;;;;;;;;;;;4937601;29;20336;-55
2021/04/17 08:50:21;;;;;;;;;;;;;;;;;;4937757;29;20328;-52
2021/04/17 08:52:46;;;;;;;;;;;;;;;;;;4939163;29;20367;-53
2021/04/17 08:55:12;;;;;;;;;;;;;;;;;;4938849;29;19910;-55
2021/04/17 08:57:37;;;;;;;;;;;;;;;;;;4937370;29;19918;-54
2021/04/17 09:00:02;;;;;;;;;;;;;;;;;;4936702;29;19950;-52
2021/04/17 09:02:28;;;;;;;;;;;;;;;;;;4937738;29;20367;-54
2021/04/17 09:04:53;;;;;;;;;;;;;;;;;;4938815;29;20367;-53
2021/04/17 09:07:18;;;;;;;;;;;;;;;;;;4938045;29;19953;-53
2021/04/17 09:09:43;;;;;;;;;;;;;;;;;;4943799;29;19906;-55
2021/04/17 09:12:09;;;;;;;;;;;;;;;;;;4944545;29;20066;-56
2021/04/17 09:14:36;;;;;;;;;;;;;;;;;;4939022;29;20332;-55
2021/04/17 09:17:01;;;;;;;;;;;;;;;;;;4936601;29;19917;-57
2021/04/17 09:19:26;;;;;;;;;;;;;;;;;;4938105;29;19910;-56
2021/04/17 09:21:51;;;;;;;;;;;;;;;;;;4937299;29;20363;-56
2021/04/17 09:24:17;;;;;;;;;;;;;;;;;;4936931;29;19946;-55
2021/04/17 09:26:42;;;;;;;;;;;;;;;;;;4937255;29;19911;-56
2021/04/17 09:29:07;;;;;;;;;;;;;;;;;;4937233;29;19961;-53
2021/04/17 09:31:33;;;;;;;;;;;;;;;;;;4937433;29;20367;-56
2021/04/17 09:33:58;;;;;;;;;;;;;;;;;;4936849;29;19911;-55
2021/04/17 09:36:23;;;;;;;;;;;;;;;;;;4936661;29;19914;-55
2021/04/17 09:38:48;;;;;;;;;;;;;;;;;;4936461;29;19910;-55
2021/04/17 09:41:14;;;;;;;;;;;;;;;;;;4936651;29;19911;-55
2021/04/17 09:43:39;;;;;;;;;;;;;;;;;;4936525;29;19918;-55
2021/04/17 09:46:04;;;;;;;;;;;;;;;;;;4936991;29;20382;-55
2021/04/17 09:48:29;;;;;;;;;;;;;;;;;;4935416;29;19914;-56
2021/04/17 09:50:57;;;;;;;;;;;;;;;;;;4936656;29;19929;-56
2021/04/17 09:53:28;;;;;;;;;;;;;;;;;;4935604;29;20001;-54
2021/04/17 09:55:53;;;;;;;;;;;;;;;;;;4936483;29;19917;-55
2021/04/17 09:58:18;;;;;;;;;;;;;;;;;;4936200;29;19910;-54
2021/04/17 10:00:44;;;;;;;;;;;;;;;;;;4935873;29;19934;-53
2021/04/17 10:03:09;;;;;;;;;;;;;;;;;;4934079;29;20013;-56
2021/04/17 10:05:34;;;;;;;;;;;;;;;;;;4935435;29;20014;-56
2021/04/17 10:07:59;;;;;;;;;;;;;;;;;;4935485;29;19913;-54
2021/04/17 10:10:25;;;;;;;;;;;;;;;;;;4935069;29;19922;-55
2021/04/17 10:12:50;;;;;;;;;;;;;;;;;;4935619;29;19911;-55
2021/04/17 10:15:15;;;;;;;;;;;;;;;;;;4935594;29;20285;-55
2021/04/17 10:17:40;;;;;;;;;;;;;;;;;;4934540;29;19961;-55
2021/04/17 10:20:05;;;;;;;;;;;;;;;;;;4934792;29;19918;-55
2021/04/17 10:22:31;;;;;;;;;;;;;;;;;;4934202;29;19942;-58
2021/04/17 10:24:56;;;;;;;;;;;;;;;;;;4935708;29;19915;-55
2021/04/17 10:27:21;;;;;;;;;;;;;;;;;;4934481;29;19964;-56
2021/04/17 10:29:46;;;;;;;;;;;;;;;;;;4934488;29;20010;-55
2021/04/17 10:32:12;;;;;;;;;;;;;;;;;;4934506;29;19918;-57
2021/04/17 10:34:37;;;;;;;;;;;;;;;;;;4936063;29;19917;-56
2021/04/17 10:37:02;;;;;;;;;;;;;;;;;;4934798;29;20404;-55
2021/04/17 10:39:27;;;;;;;;;;;;;;;;;;4935472;29;20347;-56
2021/04/17 10:41:53;;;;;;;;;;;;;;;;;;4935458;29;20359;-56
2021/04/17 10:44:19;;;;;;;;;;;;;;;;;;4935226;29;20244;-56
2021/04/17 10:46:44;;;;;;;;;;;;;;;;;;4935632;29;19914;-56
2021/04/17 10:49:09;;;;;;;;;;;;;;;;;;4934002;29;19911;-55
2021/04/17 10:51:35;;;;;;;;;;;;;;;;;;4935213;29;19973;-55
2021/04/17 10:54:00;;;;;;;;;;;;;;;;;;4935177;29;20374;-57
2021/04/17 10:56:25;;;;;;;;;;;;;;;;;;4934515;29;20415;-55
2021/04/17 10:58:50;;;;;;;;;;;;;;;;;;4934087;29;20458;-55
2021/04/17 11:01:15;;;;;;;;;;;;;;;;;;4935118;29;20017;-54
2021/04/17 11:03:41;;;;;;;;;;;;;;;;;;4935143;29;20362;-54
2021/04/17 11:06:06;;;;;;;;;;;;;;;;;;4934014;29;19911;-56
2021/04/17 11:08:31;;;;;;;;;;;;;;;;;;4934894;29;20400;-55
2021/04/17 11:10:56;;;;;;;;;;;;;;;;;;4935280;29;19958;-54
2021/04/17 11:13:22;;;;;;;;;;;;;;;;;;4934689;29;19914;-55
2021/04/17 11:15:47;;;;;;;;;;;;;;;;;;4935122;29;19914;-57
2021/04/17 11:18:12;;;;;;;;;;;;;;;;;;4918152;29;19918;-56
2021/04/17 11:20:37;;;;;;;;;;;;;;;;;;4933518;29;19921;-56
2021/04/17 11:23:03;;;;;;;;;;;;;;;;;;4935162;29;19922;-55
2021/04/17 11:25:28;;;;;;;;;;;;;;;;;;4934764;29;19922;-54
2021/04/17 11:27:53;;;;;;;;;;;;;;;;;;4934685;29;19918;-54
2021/04/17 11:30:18;;;;;;;;;;;;;;;;;;4934877;29;19911;-54
2021/04/17 11:32:43;;;;;;;;;;;;;;;;;;4935032;29;19964;-56
2021/04/17 11:35:09;;;;;;;;;;;;;;;;;;4934876;29;20001;-55
2021/04/17 11:37:34;;;;;;;;;;;;;;;;;;4933681;29;19953;-55
2021/04/17 11:39:59;;;;;;;;;;;;;;;;;;4934830;29;19911;-54
2021/04/17 11:42:24;;;;;;;;;;;;;;;;;;4933174;29;19915;-56
2021/04/17 11:44:51;;;;;;;;;;;;;;;;;;4934039;29;19922;-55
2021/04/17 11:47:17;;;;;;;;;;;;;;;;;;4934583;29;19911;-57
2021/04/17 11:49:42;;;;;;;;;;;;;;;;;;4934966;29;20228;-57
2021/04/17 11:52:07;;;;;;;;;;;;;;;;;;4933635;29;20263;-55
2021/04/17 11:54:33;;;;;;;;;;;;;;;;;;4935126;29;19911;-54
2021/04/17 11:56:58;;;;;;;;;;;;;;;;;;4934635;29;20286;-54
2021/04/17 11:59:23;;;;;;;;;;;;;;;;;;4934282;29;19921;-55
2021/04/17 12:01:48;;;;;;;;;;;;;;;;;;4934702;29;19927;-57
2021/04/17 12:04:14;;;;;;;;;;;;;;;;;;4933643;29;20010;-56
2021/04/17 12:06:40;;;;;;;;;;;;;;;;;;4933278;29;19915;-56
2021/04/17 12:09:05;;;;;;;;;;;;;;;;;;4937761;29;19910;-56
2021/04/17 12:11:30;;;;;;;;;;;;;;;;;;4937689;29;20277;-54
2021/04/17 12:13:56;;;;;;;;;;;;;;;;;;4936531;29;19929;-56
2021/04/17 12:16:21;;;;;;;;;;;;;;;;;;4920279;29;19914;-54
2021/04/17 12:18:46;;;;;;;;;;;;;;;;;;4936842;29;19922;-56
2021/04/17 12:21:11;;;;;;;;;;;;;;;;;;4938021;29;20001;-55
2021/04/17 12:23:37;;;;;;;;;;;;;;;;;;4937605;29;19914;-55
2021/04/17 12:26:02;;;;;;;;;;;;;;;;;;4937859;29;19915;-57
2021/04/17 12:28:27;;;;;;;;;;;;;;;;;;4937743;29;20377;-56
2021/04/17 12:30:56;;;;;;;;;;;;;;;;;;4937846;29;20377;-56
2021/04/17 12:33:21;;;;;;;;;;;;;;;;;;4937851;29;19918;-56
2021/04/17 12:35:47;;;;;;;;;;;;;;;;;;4937600;29;19911;-54
2021/04/17 12:38:12;;;;;;;;;;;;;;;;;;4937761;29;19918;-54
2021/04/17 12:40:38;;;;;;;;;;;;;;;;;;4936176;29;19915;-55
2021/04/17 12:43:03;;;;;;;;;;;;;;;;;;4936477;29;20319;-53
2021/04/17 12:45:28;;;;;;;;;;;;;;;;;;4937452;29;20007;-52
2021/04/17 12:47:53;;;;;;;;;;;;;;;;;;4937864;29;19997;-53
2021/04/17 12:50:19;;;;;;;;;;;;;;;;;;4937368;29;19918;-54
2021/04/17 12:52:44;;;;;;;;;;;;;;;;;;4937189;29;19917;-53
2021/04/17 12:55:09;;;;;;;;;;;;;;;;;;4937313;29;19911;-55
2021/04/17 12:57:34;;;;;;;;;;;;;;;;;;4936899;29;19910;-56
2021/04/17 13:00:00;;;;;;;;;;;;;;;;;;4936030;29;19914;-54
2021/04/17 13:02:25;;;;;;;;;;;;;;;;;;4936773;29;19925;-57
2021/04/17 13:04:50;;;;;;;;;;;;;;;;;;4937149;29;19954;-55
2021/04/17 13:07:15;;;;;;;;;;;;;;;;;;4937223;29;19911;-55
2021/04/17 13:09:41;;;;;;;;;;;;;;;;;;4936958;29;19911;-54
2021/04/17 13:12:06;;;;;;;;;;;;;;;;;;4937463;29;19917;-54
2021/04/17 13:14:31;;;;;;;;;;;;;;;;;;4936756;29;20343;-55
2021/04/17 13:16:56;;;;;;;;;;;;;;;;;;4937129;29;20426;-54
2021/04/17 13:19:22;;;;;;;;;;;;;;;;;;4935313;29;20383;-54
2021/04/17 13:21:48;;;;;;;;;;;;;;;;;;4936854;29;20006;-52
2021/04/17 13:24:13;;;;;;;;;;;;;;;;;;4936813;29;20430;-55
2021/04/17 13:26:38;;;;;;;;;;;;;;;;;;4935571;29;20384;-56
2021/04/17 13:29:03;;;;;;;;;;;;;;;;;;4936849;29;19998;-56
2021/04/17 13:31:29;;;;;;;;;;;;;;;;;;4918558;29;20386;-55
2021/04/17 13:33:54;;;;;;;;;;;;;;;;;;4935834;29;19966;-53
2021/04/17 13:36:19;;;;;;;;;;;;;;;;;;4926736;29;19953;-56
2021/04/17 13:38:44;;;;;;;;;;;;;;;;;;4935278;29;20367;-55
2021/04/17 13:41:09;;;;;;;;;;;;;;;;;;4936304;29;19918;-55
2021/04/17 13:43:35;;;;;;;;;;;;;;;;;;4921628;29;19926;-55
2021/04/17 13:46:00;;;;;;;;;;;;;;;;;;4918230;29;20046;-53
2021/04/17 13:48:25;;;;;;;;;;;;;;;;;;4918153;29;19911;-56
2021/04/17 13:50:50;;;;;;;;;;;;;;;;;;4916875;29;19915;-54
2021/04/17 13:53:16;;;;;;;;;;;;;;;;;;4916390;29;19919;-55
2021/04/17 13:55:41;;;;;;;;;;;;;;;;;;4915791;29;20021;-54
2021/04/17 13:58:06;;;;;;;;;;;;;;;;;;4915959;29;19911;-55
2021/04/17 14:00:32;;;;;;;;;;;;;;;;;;4917486;29;19911;-54
2021/04/17 14:02:57;;;;;;;;;;;;;;;;;;4915731;29;19925;-53
2021/04/17 14:05:22;;;;;;;;;;;;;;;;;;4917415;29;20013;-55
2021/04/17 14:07:47;;;;;;;;;;;;;;;;;;4918376;29;19911;-55
2021/04/17 14:10:13;;;;;;;;;;;;;;;;;;4931244;29;20001;-56
2021/04/17 14:12:38;;;;;;;;;;;;;;;;;;4934789;29;19985;-52
2021/04/17 14:15:03;;;;;;;;;;;;;;;;;;4935961;29;20014;-54
2021/04/17 14:17:28;;;;;;;;;;;;;;;;;;4935802;29;19969;-55
2021/04/17 14:19:54;;;;;;;;;;;;;;;;;;4936073;29;19911;-56
2021/04/17 14:22:19;;;;;;;;;;;;;;;;;;4935801;29;20350;-53
2021/04/17 14:24:44;;;;;;;;;;;;;;;;;;4934525;29;19918;-56
2021/04/17 14:27:09;;;;;;;;;;;;;;;;;;4935847;29;19910;-54
2021/04/17 14:29:35;;;;;;;;;;;;;;;;;;4935399;29;19919;-56
2021/04/17 14:32:00;;;;;;;;;;;;;;;;;;4935499;29;19918;-55
2021/04/17 14:34:26;;;;;;;;;;;;;;;;;;4935683;29;20347;-56
2021/04/17 14:36:52;;;;;;;;;;;;;;;;;;4934225;29;20001;-56
2021/04/17 14:39:17;;;;;;;;;;;;;;;;;;4935033;29;19946;-56
2021/04/17 14:41:42;;;;;;;;;;;;;;;;;;4935120;29;20375;-56
2021/04/17 14:44:13;;;;;;;;;;;;;;;;;;4922589;29;20086;-53
2021/04/17 14:46:38;;;;;;;;;;;;;;;;;;4916951;29;19969;-55
2021/04/17 14:49:04;;;;;;;;;;;;;;;;;;4915455;29;19943;-55
2021/04/17 14:51:29;;;;;;;;;;;;;;;;;;4916558;29;19918;-55
2021/04/17 14:53:54;;;;;;;;;;;;;;;;;;4916427;29;20271;-54
2021/04/17 14:56:19;;;;;;;;;;;;;;;;;;4917646;29;19970;-56
2021/04/17 14:58:45;;;;;;;;;;;;;;;;;;4916107;29;19911;-55
2021/04/17 15:01:10;;;;;;;;;;;;;;;;;;4917231;29;19913;-57
2021/04/17 15:03:35;;;;;;;;;;;;;;;;;;4915977;29;20383;-56
2021/04/17 15:06:00;;;;;;;;;;;;;;;;;;4916362;29;20349;-52
2021/04/17 15:08:26;;;;;;;;;;;;;;;;;;4917902;29;19911;-51
2021/04/17 15:10:51;;;;;;;;;;;;;;;;;;4920205;29;19915;-55
2021/04/17 15:13:16;;;;;;;;;;;;;;;;;;4921606;29;20070;-56
2021/04/17 15:15:41;;;;;;;;;;;;;;;;;;4919907;29;19988;-53
2021/04/17 15:18:07;;;;;;;;;;;;;;;;;;4916665;29;20399;-56
2021/04/17 15:20:32;;;;;;;;;;;;;;;;;;4916912;29;19917;-55
2021/04/17 15:22:57;;;;;;;;;;;;;;;;;;4916969;29;20417;-54
2021/04/17 15:25:22;;;;;;;;;;;;;;;;;;4915351;29;19922;-55
2021/04/17 15:27:47;;;;;;;;;;;;;;;;;;4916488;29;19950;-53
2021/04/17 15:30:13;;;;;;;;;;;;;;;;;;4916585;29;19907;-55
2021/04/17 15:32:38;;;;;;;;;;;;;;;;;;4916357;29;19915;-52
2021/04/17 15:35:03;;;;;;;;;;;;;;;;;;4915939;29;19931;-55
2021/04/17 15:37:28;;;;;;;;;;;;;;;;;;4916117;29;19974;-54
2021/04/17 15:39:53;;;;;;;;;;;;;;;;;;4914736;29;19914;-54
2021/04/17 15:42:19;;;;;;;;;;;;;;;;;;4917908;29;20336;-53
2021/04/17 15:44:44;;;;;;;;;;;;;;;;;;4919469;29;19918;-53
2021/04/17 15:47:09;;;;;;;;;;;;;;;;;;4929298;29;20298;-55
2021/04/17 15:49:34;;;;;;;;;;;;;;;;;;4938937;29;19922;-54
2021/04/17 15:52:00;;;;;;;;;;;;;;;;;;4938382;29;19985;-51
2021/04/17 15:54:26;;;;;;;;;;;;;;;;;;4937582;29;19914;-56
2021/04/17 16:15:01;;;;;;;;;;;;;;;;;;4937966;29;19921;-54
2021/04/17 16:17:26;;;;;;;;;;;;;;;;;;4938157;29;19911;-50
2021/04/17 16:19:51;;;;;;;;;;;;;;;;;;4938080;29;19917;-54
2021/04/17 16:22:16;;;;;;;;;;;;;;;;;;4938391;29;19917;-55
2021/04/17 16:24:42;;;;;;;;;;;;;;;;;;4937327;29;19911;-51
2021/04/17 16:27:08;;;;;;;;;;;;;;;;;;4937906;29;19978;-56
2021/04/17 16:29:36;;;;;;;;;;;;;;;;;;4937778;29;19952;-53
2021/04/17 16:32:01;;;;;;;;;;;;;;;;;;4937575;29;20381;-54
2021/04/17 16:34:27;;;;;;;;;;;;;;;;;;4937833;29;19910;-54
2021/04/17 16:36:52;;;;;;;;;;;;;;;;;;4937704;29;20367;-55
2021/04/17 16:39:17;;;;;;;;;;;;;;;;;;4937108;29;20006;-53
2021/04/17 16:41:42;;;;;;;;;;;;;;;;;;4937766;29;19983;-55
2021/04/17 16:44:11;;;;;;;;;;;;;;;;;;4935912;29;19927;-56
2021/04/17 16:46:37;;;;;;;;;;;;;;;;;;4937758;29;19910;-56
2021/04/17 16:49:02;;;;;;;;;;;;;;;;;;4937705;29;19918;-54
2021/04/17 16:51:27;;;;;;;;;;;;;;;;;;4937686;29;19910;-55